Time,TemperatureF,DewpointF,PressureIn,WindDirection,WindDirectionDegrees,WindSpeedMPH,WindSpeedGustMPH,Humidity,HourlyPrecipIn,Conditions,Clouds,dailyrainin,SoftwareType,DateUTC
2013-07-10 00:02:00,72.7,66.5,29.84,NNW,340,7.0,7.0,81,0.00,,,0.00,Wunderground v.1.15,2013-07-10 05:02:00,
2013-07-10 00:07:00,72.8,66.3,29.84,North,360,6.0,7.0,80,0.00,,,0.00,Wunderground v.1.15,2013-07-10 05:07:00,
2013-07-10 00:12:00,72.8,66.3,29.84,NNW,344,4.0,5.0,80,0.00,,,0.00,Wunderground v.1.15,2013-07-10 05:12:00,
2013-07-10 00:18:00,72.7,66.5,29.85,NNW,344,4.0,5.0,81,0.00,,,0.00,Wunderground v.1.15,2013-07-10 05:18:00,
2013-07-10 00:23:00,72.3,66.1,29.85,NNW,344,4.0,4.0,81,0.00,,,0.00,Wunderground v.1.15,2013-07-10 05:23:00,
2013-07-10 00:28:00,72.1,66.3,29.85,NNW,341,2.0,5.0,82,0.00,,,0.00,Wunderground v.1.15,2013-07-10 05:28:00,
2013-07-10 00:33:00,71.8,66.4,29.85,North,351,4.0,6.0,83,0.00,,,0.00,Wunderground v.1.15,2013-07-10 05:33:00,
2013-07-10 00:38:00,71.8,66.4,29.85,NNW,346,6.0,7.0,83,0.00,,,0.00,Wunderground v.1.15,2013-07-10 05:38:00,
2013-07-10 00:44:00,71.8,66.0,29.85,North,360,14.0,14.0,82,0.00,,,0.00,Wunderground v.1.15,2013-07-10 05:44:00,
2013-07-10 00:49:00,72.1,65.9,29.86,NNW,337,10.0,16.0,81,0.00,,,0.00,Wunderground v.1.15,2013-07-10 05:49:00,
2013-07-10 00:55:00,72.3,66.1,29.86,NNW,344,10.0,10.0,81,0.00,,,0.00,Wunderground v.1.15,2013-07-10 05:55:00,
2013-07-10 01:00:00,72.1,65.9,29.86,NNW,338,9.0,9.0,81,0.00,,,0.00,Wunderground v.1.15,2013-07-10 06:00:00,
2013-07-10 01:06:00,71.8,66.0,29.86,North,360,3.0,9.0,82,0.00,,,0.00,Wunderground v.1.15,2013-07-10 06:06:00,
2013-07-10 01:11:00,71.6,65.8,29.86,NNW,341,4.0,6.0,82,0.00,,,0.00,Wunderground v.1.15,2013-07-10 06:11:00,
2013-07-10 01:16:00,71.5,66.1,29.86,NNW,348,6.0,8.0,83,0.00,,,0.00,Wunderground v.1.15,2013-07-10 06:16:00,
2013-07-10 01:22:00,71.3,66.2,29.86,NNW,340,5.0,7.0,84,0.00,,,0.00,Wunderground v.1.15,2013-07-10 06:22:00,
2013-07-10 01:28:00,70.9,65.5,29.86,North,351,11.0,11.0,83,0.00,,,0.00,Wunderground v.1.15,2013-07-10 06:28:00,
2013-07-10 01:33:00,70.9,64.1,29.86,North,351,10.0,10.0,79,0.00,,,0.00,Wunderground v.1.15,2013-07-10 06:33:00,
2013-07-10 01:38:00,70.9,63.3,29.86,North,350,8.0,16.0,77,0.00,,,0.00,Wunderground v.1.15,2013-07-10 06:38:00,
2013-07-10 01:43:00,70.8,63.2,29.86,North,360,14.0,14.0,77,0.00,,,0.00,Wunderground v.1.15,2013-07-10 06:43:00,
2013-07-10 01:48:00,70.4,63.2,29.87,North,360,14.0,14.0,78,0.00,,,0.00,Wunderground v.1.15,2013-07-10 06:48:00,
2013-07-10 01:54:00,70.1,63.3,29.87,North,360,19.0,19.0,79,0.00,,,0.00,Wunderground v.1.15,2013-07-10 06:54:00,
2013-07-10 01:59:00,69.8,63.3,29.87,North,360,10.0,19.0,80,0.00,,,0.00,Wunderground v.1.15,2013-07-10 06:59:00,
2013-07-10 02:04:00,69.6,63.2,29.87,North,360,9.0,18.0,80,0.00,,,0.00,Wunderground v.1.15,2013-07-10 07:04:00,
2013-07-10 02:09:00,69.4,63.3,29.87,North,351,14.0,18.0,81,0.00,,,0.00,Wunderground v.1.15,2013-07-10 07:09:00,
2013-07-10 02:14:00,69.3,63.2,29.87,NNW,343,10.0,14.0,81,0.00,,,0.00,Wunderground v.1.15,2013-07-10 07:14:00,
2013-07-10 02:19:00,69.1,63.0,29.87,North,351,13.0,19.0,81,0.00,,,0.00,Wunderground v.1.15,2013-07-10 07:19:00,
2013-07-10 02:24:00,68.8,63.1,29.87,North,360,6.0,18.0,82,0.00,,,0.00,Wunderground v.1.15,2013-07-10 07:24:00,
2013-07-10 02:29:00,68.6,62.9,29.87,North,360,4.0,18.0,82,0.00,,,0.00,Wunderground v.1.15,2013-07-10 07:29:00,
2013-07-10 02:34:00,68.3,63.3,29.88,NNW,335,8.0,11.0,84,0.00,,,0.00,Wunderground v.1.15,2013-07-10 07:34:00,
2013-07-10 02:39:00,67.8,63.1,29.88,North,351,9.0,11.0,85,0.00,,,0.00,Wunderground v.1.15,2013-07-10 07:39:00,
2013-07-10 02:44:00,67.4,63.1,29.88,NNW,348,6.0,12.0,86,0.00,,,0.00,Wunderground v.1.15,2013-07-10 07:44:00,
2013-07-10 02:49:00,67.4,63.1,29.89,NNW,347,6.0,12.0,86,0.00,,,0.00,Wunderground v.1.15,2013-07-10 07:49:00,
2013-07-10 02:54:00,67.1,62.8,29.89,North,350,6.0,11.0,86,0.00,,,0.00,Wunderground v.1.15,2013-07-10 07:54:00,
2013-07-10 02:59:00,67.1,62.4,29.89,North,351,5.0,13.0,85,0.00,,,0.00,Wunderground v.1.15,2013-07-10 07:59:00,
2013-07-10 03:04:00,66.9,62.2,29.89,NNE,22,10.0,14.0,85,0.00,,,0.00,Wunderground v.1.15,2013-07-10 08:04:00,
2013-07-10 03:09:00,67.1,61.8,29.89,NNW,335,9.0,14.0,83,0.00,,,0.00,Wunderground v.1.15,2013-07-10 08:09:00,
2013-07-10 03:14:00,66.9,60.5,29.89,North,360,7.0,17.0,80,0.00,,,0.00,Wunderground v.1.15,2013-07-10 08:14:00,
2013-07-10 03:19:00,67.1,60.0,29.89,NNE,17,10.0,20.0,78,0.00,,,0.00,Wunderground v.1.15,2013-07-10 08:19:00,
2013-07-10 03:24:00,66.9,59.8,29.89,North,350,12.0,19.0,78,0.00,,,0.00,Wunderground v.1.15,2013-07-10 08:24:00,
2013-07-10 03:29:00,66.8,60.1,29.89,NNW,334,11.0,20.0,79,0.00,,,0.00,Wunderground v.1.15,2013-07-10 08:29:00,
2013-07-10 03:35:00,66.6,59.9,29.90,North,351,10.0,16.0,79,0.00,,,0.00,Wunderground v.1.15,2013-07-10 08:35:00,
2013-07-10 03:40:00,66.4,59.7,29.90,North,11,7.0,10.0,79,0.00,,,0.00,Wunderground v.1.15,2013-07-10 08:40:00,
2013-07-10 03:45:00,66.3,59.6,29.90,NNW,327,9.0,12.0,79,0.00,,,0.00,Wunderground v.1.15,2013-07-10 08:45:00,
2013-07-10 03:50:00,66.1,59.0,29.91,NNE,20,7.0,13.0,78,0.00,,,0.00,Wunderground v.1.15,2013-07-10 08:50:00,
2013-07-10 03:55:00,66.1,58.7,29.91,NNW,341,9.0,14.0,77,0.00,,,0.00,Wunderground v.1.15,2013-07-10 08:55:00,
2013-07-10 04:00:00,66.1,58.3,29.91,NNW,330,11.0,14.0,76,0.00,,,0.00,Wunderground v.1.15,2013-07-10 09:00:00,
2013-07-10 04:05:00,66.1,57.9,29.92,NNW,338,11.0,16.0,75,0.00,,,0.00,Wunderground v.1.15,2013-07-10 09:05:00,
2013-07-10 04:10:00,66.0,57.8,29.92,North,351,13.0,13.0,75,0.00,,,0.00,Wunderground v.1.15,2013-07-10 09:10:00,
2013-07-10 04:15:00,65.8,57.7,29.92,North,351,10.0,14.0,75,0.00,,,0.00,Wunderground v.1.15,2013-07-10 09:15:00,
2013-07-10 04:20:00,65.6,57.1,29.92,North,351,7.0,10.0,74,0.00,,,0.00,Wunderground v.1.15,2013-07-10 09:20:00,
2013-07-10 04:25:00,65.6,57.1,29.92,NNE,15,9.0,13.0,74,0.00,,,0.00,Wunderground v.1.15,2013-07-10 09:25:00,
2013-07-10 04:30:00,65.5,57.0,29.93,North,350,9.0,9.0,74,0.00,,,0.00,Wunderground v.1.15,2013-07-10 09:30:00,
2013-07-10 04:35:00,65.5,57.0,29.93,NNW,346,7.0,12.0,74,0.00,,,0.00,Wunderground v.1.15,2013-07-10 09:35:00,
2013-07-10 04:40:00,65.5,57.0,29.93,North,360,6.0,10.0,74,0.00,,,0.00,Wunderground v.1.15,2013-07-10 09:40:00,
2013-07-10 04:45:00,65.3,56.4,29.93,North,351,13.0,17.0,73,0.00,,,0.00,Wunderground v.1.15,2013-07-10 09:45:00,
2013-07-10 04:50:00,65.3,56.4,29.93,North,9,13.0,15.0,73,0.00,,,0.00,Wunderground v.1.15,2013-07-10 09:50:00,
2013-07-10 04:55:00,65.3,56.4,29.93,NNE,13,14.0,15.0,73,0.00,,,0.00,Wunderground v.1.15,2013-07-10 09:55:00,
2013-07-10 05:01:00,65.2,56.3,29.93,North,9,11.0,15.0,73,0.00,,,0.00,Wunderground v.1.15,2013-07-10 10:01:00,
2013-07-10 05:06:00,65.2,56.3,29.93,NNE,15,12.0,18.0,73,0.00,,,0.00,Wunderground v.1.15,2013-07-10 10:06:00,
2013-07-10 05:11:00,65.0,56.1,29.93,North,360,9.0,15.0,73,0.00,,,0.00,Wunderground v.1.15,2013-07-10 10:11:00,
2013-07-10 05:16:00,64.8,56.3,29.93,NNE,17,7.0,15.0,74,0.00,,,0.00,Wunderground v.1.15,2013-07-10 10:16:00,
2013-07-10 05:21:00,64.7,56.2,29.93,NNW,344,10.0,13.0,74,0.00,,,0.00,Wunderground v.1.15,2013-07-10 10:21:00,
2013-07-10 05:26:00,64.7,56.2,29.93,North,360,15.0,15.0,74,0.00,,,0.00,Wunderground v.1.15,2013-07-10 10:26:00,
2013-07-10 05:31:00,64.7,56.2,29.93,North,10,1.0,16.0,74,0.00,,,0.00,Wunderground v.1.15,2013-07-10 10:31:00,
2013-07-10 05:36:00,64.5,56.0,29.93,North,350,6.0,16.0,74,0.00,,,0.00,Wunderground v.1.15,2013-07-10 10:36:00,
2013-07-10 05:41:00,64.5,56.0,29.93,North,5,10.0,13.0,74,0.00,,,0.00,Wunderground v.1.15,2013-07-10 10:41:00,
2013-07-10 05:46:00,64.3,56.2,29.94,North,360,8.0,16.0,75,0.00,,,0.00,Wunderground v.1.15,2013-07-10 10:46:00,
2013-07-10 05:51:00,64.3,56.6,29.94,North,360,6.0,11.0,76,0.00,,,0.00,Wunderground v.1.15,2013-07-10 10:51:00,
2013-07-10 05:56:00,64.2,56.5,29.94,NNW,346,7.0,14.0,76,0.00,,,0.00,Wunderground v.1.15,2013-07-10 10:56:00,
2013-07-10 06:01:00,64.0,56.3,29.94,NNE,16,9.0,12.0,76,0.00,,,0.00,Wunderground v.1.15,2013-07-10 11:01:00,
2013-07-10 06:06:00,64.0,56.3,29.94,NNW,344,15.0,15.0,76,0.00,,,0.00,Wunderground v.1.15,2013-07-10 11:06:00,
2013-07-10 06:11:00,64.0,56.3,29.94,North,351,13.0,14.0,76,0.00,,,0.00,Wunderground v.1.15,2013-07-10 11:11:00,
2013-07-10 06:16:00,64.0,55.9,29.95,North,360,6.0,18.0,75,0.00,,,0.00,Wunderground v.1.15,2013-07-10 11:16:00,
2013-07-10 06:21:00,64.2,56.1,29.95,North,351,18.0,18.0,75,0.00,,,0.00,Wunderground v.1.15,2013-07-10 11:21:00,
2013-07-10 06:26:00,64.2,55.4,29.95,North,11,14.0,18.0,73,0.00,,,0.00,Wunderground v.1.15,2013-07-10 11:26:00,
2013-07-10 06:31:00,64.2,55.4,29.95,North,360,9.0,16.0,73,0.00,,,0.00,Wunderground v.1.15,2013-07-10 11:31:00,
2013-07-10 06:36:00,64.2,55.0,29.95,NNE,30,14.0,16.0,72,0.00,,,0.00,Wunderground v.1.15,2013-07-10 11:36:00,
2013-07-10 06:41:00,64.2,55.4,29.95,North,351,6.0,11.0,73,0.00,,,0.00,Wunderground v.1.15,2013-07-10 11:41:00,
2013-07-10 06:46:00,63.9,55.4,29.95,NW,312,8.0,14.0,74,0.00,,,0.00,Wunderground v.1.15,2013-07-10 11:46:00,
2013-07-10 06:51:00,63.7,55.6,29.95,NNE,14,12.0,12.0,75,0.00,,,0.00,Wunderground v.1.15,2013-07-10 11:51:00,
2013-07-10 06:56:00,63.7,56.0,29.95,NNW,335,10.0,14.0,76,0.00,,,0.00,Wunderground v.1.15,2013-07-10 11:56:00,
2013-07-10 07:01:00,63.7,56.4,29.96,NNW,346,4.0,10.0,77,0.00,,,0.00,Wunderground v.1.15,2013-07-10 12:01:00,
2013-07-10 07:06:00,63.7,56.4,29.96,NNW,344,7.0,14.0,77,0.00,,,0.00,Wunderground v.1.15,2013-07-10 12:06:00,
2013-07-10 07:11:00,63.7,56.4,29.96,North,9,8.0,14.0,77,0.00,,,0.00,Wunderground v.1.15,2013-07-10 12:11:00,
2013-07-10 07:16:00,63.9,56.2,29.97,NNW,327,12.0,14.0,76,0.00,,,0.00,Wunderground v.1.15,2013-07-10 12:16:00,
2013-07-10 07:22:00,63.7,56.0,29.97,NNW,340,8.0,13.0,76,0.00,,,0.00,Wunderground v.1.15,2013-07-10 12:22:00,
2013-07-10 07:27:00,63.7,56.0,29.97,North,351,13.0,16.0,76,0.00,,,0.00,Wunderground v.1.15,2013-07-10 12:27:00,
2013-07-10 07:32:00,63.9,56.2,29.97,NNW,348,11.0,12.0,76,0.00,,,0.00,Wunderground v.1.15,2013-07-10 12:32:00,
2013-07-10 07:37:00,64.0,56.3,29.97,North,351,7.0,15.0,76,0.00,,,0.00,Wunderground v.1.15,2013-07-10 12:37:00,
2013-07-10 07:42:00,64.2,56.5,29.97,NNW,332,13.0,13.0,76,0.00,,,0.00,Wunderground v.1.15,2013-07-10 12:42:00,
2013-07-10 07:47:00,64.3,56.2,29.97,NNW,330,10.0,14.0,75,0.00,,,0.00,Wunderground v.1.15,2013-07-10 12:47:00,
2013-07-10 07:52:00,64.7,56.6,29.97,NNE,13,12.0,12.0,75,0.00,,,0.00,Wunderground v.1.15,2013-07-10 12:52:00,
2013-07-10 07:57:00,64.8,55.9,29.97,NNE,17,10.0,15.0,73,0.00,,,0.00,Wunderground v.1.15,2013-07-10 12:57:00,
2013-07-10 08:02:00,64.8,55.6,29.97,North,351,7.0,13.0,72,0.00,,,0.00,Wunderground v.1.15,2013-07-10 13:02:00,
2013-07-10 08:07:00,65.0,55.8,29.97,North,5,5.0,14.0,72,0.00,,,0.00,Wunderground v.1.15,2013-07-10 13:07:00,
2013-07-10 08:12:00,65.0,56.1,29.97,North,360,11.0,12.0,73,0.00,,,0.00,Wunderground v.1.15,2013-07-10 13:12:00,
2013-07-10 08:17:00,64.8,55.9,29.97,North,351,12.0,15.0,73,0.00,,,0.00,Wunderground v.1.15,2013-07-10 13:17:00,
2013-07-10 08:22:00,65.0,56.1,29.97,NNW,341,12.0,14.0,73,0.00,,,0.00,Wunderground v.1.15,2013-07-10 13:22:00,
2013-07-10 08:27:00,65.2,55.9,29.97,NNW,339,7.0,16.0,72,0.00,,,0.00,Wunderground v.1.15,2013-07-10 13:27:00,
2013-07-10 08:32:00,65.5,56.2,29.97,North,360,4.0,10.0,72,0.00,,,0.00,Wunderground v.1.15,2013-07-10 13:32:00,
2013-07-10 08:37:00,65.5,55.5,29.97,NNE,22,5.0,16.0,70,0.00,,,0.00,Wunderground v.1.15,2013-07-10 13:37:00,
2013-07-10 08:42:00,65.3,55.3,29.97,NNE,13,13.0,16.0,70,0.00,,,0.00,Wunderground v.1.15,2013-07-10 13:42:00,
2013-07-10 08:47:00,65.6,54.8,29.97,NNE,22,5.0,16.0,68,0.00,,,0.00,Wunderground v.1.15,2013-07-10 13:47:00,
2013-07-10 08:52:00,66.0,55.1,29.97,NW,319,7.0,17.0,68,0.00,,,0.00,Wunderground v.1.15,2013-07-10 13:52:00,
2013-07-10 08:58:00,66.0,55.5,29.97,North,360,12.0,17.0,69,0.00,,,0.00,Wunderground v.1.15,2013-07-10 13:58:00,
2013-07-10 09:03:00,65.8,54.9,29.97,NNW,327,13.0,15.0,68,0.00,,,0.00,Wunderground v.1.15,2013-07-10 14:03:00,
2013-07-10 09:08:00,66.1,54.4,29.97,NNE,27,7.0,18.0,66,0.00,,,0.00,Wunderground v.1.15,2013-07-10 14:08:00,
2013-07-10 09:13:00,66.4,55.1,29.97,NNE,30,12.0,13.0,67,0.00,,,0.00,Wunderground v.1.15,2013-07-10 14:13:00,
2013-07-10 09:18:00,66.4,54.7,29.98,NNW,334,10.0,15.0,66,0.00,,,0.00,Wunderground v.1.15,2013-07-10 14:18:00,
2013-07-10 09:23:00,66.4,54.3,29.98,North,360,5.0,15.0,65,0.00,,,0.00,Wunderground v.1.15,2013-07-10 14:23:00,
2013-07-10 09:28:00,66.9,54.3,29.98,NNE,13,14.0,17.0,64,0.00,,,0.00,Wunderground v.1.15,2013-07-10 14:28:00,
2013-07-10 09:33:00,66.9,53.9,29.98,NNE,30,8.0,16.0,63,0.00,,,0.00,Wunderground v.1.15,2013-07-10 14:33:00,
2013-07-10 09:38:00,67.1,54.1,29.98,North,351,5.0,16.0,63,0.00,,,0.00,Wunderground v.1.15,2013-07-10 14:38:00,
2013-07-10 09:43:00,67.4,53.9,29.98,NNE,17,7.0,12.0,62,0.00,,,0.00,Wunderground v.1.15,2013-07-10 14:43:00,
2013-07-10 09:48:00,67.4,53.9,29.98,NNE,15,13.0,14.0,62,0.00,,,0.00,Wunderground v.1.15,2013-07-10 14:48:00,
2013-07-10 09:53:00,67.3,53.8,29.98,NNE,18,10.0,12.0,62,0.00,,,0.00,Wunderground v.1.15,2013-07-10 14:53:00,
2013-07-10 09:58:00,67.6,54.6,29.98,NNW,346,10.0,15.0,63,0.00,,,0.00,Wunderground v.1.15,2013-07-10 14:58:00,
2013-07-10 10:03:00,67.6,54.1,29.98,NNE,22,14.0,16.0,62,0.00,,,0.00,Wunderground v.1.15,2013-07-10 15:03:00,
2013-07-10 10:08:00,67.6,54.6,29.98,North,351,7.0,16.0,63,0.00,,,0.00,Wunderground v.1.15,2013-07-10 15:08:00,
2013-07-10 10:13:00,67.9,54.4,29.98,NNE,22,11.0,11.0,62,0.00,,,0.00,Wunderground v.1.15,2013-07-10 15:13:00,
2013-07-10 10:18:00,67.9,53.5,29.98,NNW,332,9.0,15.0,60,0.00,,,0.00,Wunderground v.1.15,2013-07-10 15:18:00,
2013-07-10 10:23:00,67.8,53.9,29.98,NNW,335,5.0,14.0,61,0.00,,,0.00,Wunderground v.1.15,2013-07-10 15:23:00,
2013-07-10 10:28:00,67.9,54.4,29.98,North,360,3.0,15.0,62,0.00,,,0.00,Wunderground v.1.15,2013-07-10 15:28:00,
2013-07-10 10:33:00,68.4,53.5,29.98,North,360,10.0,13.0,59,0.00,,,0.00,Wunderground v.1.15,2013-07-10 15:33:00,
2013-07-10 10:38:00,68.6,52.3,29.98,North,360,8.0,18.0,56,0.00,,,0.00,Wunderground v.1.15,2013-07-10 15:38:00,
2013-07-10 10:43:00,68.9,53.0,29.98,North,360,5.0,15.0,57,0.00,,,0.00,Wunderground v.1.15,2013-07-10 15:43:00,
2013-07-10 10:48:00,69.3,52.4,29.98,NE,34,7.0,15.0,55,0.00,,,0.00,Wunderground v.1.15,2013-07-10 15:48:00,
2013-07-10 10:53:00,69.4,53.0,29.98,NE,38,9.0,13.0,56,0.00,,,0.00,Wunderground v.1.15,2013-07-10 15:53:00,
2013-07-10 10:58:00,69.6,52.2,29.98,NE,34,10.0,14.0,54,0.00,,,0.00,Wunderground v.1.15,2013-07-10 15:58:00,
2013-07-10 11:03:00,68.9,52.6,29.98,NNE,26,6.0,13.0,56,0.00,,,0.00,Wunderground v.1.15,2013-07-10 16:03:00,
2013-07-10 11:09:00,69.8,53.4,29.98,NNW,339,13.0,13.0,56,0.00,,,0.00,Wunderground v.1.15,2013-07-10 16:09:00,
2013-07-10 11:14:00,69.8,53.4,29.98,NNE,28,10.0,14.0,56,0.00,,,0.00,Wunderground v.1.15,2013-07-10 16:14:00,
2013-07-10 11:19:00,69.9,53.0,29.98,NE,34,12.0,14.0,55,0.00,,,0.00,Wunderground v.1.15,2013-07-10 16:19:00,
2013-07-10 11:24:00,70.1,53.2,29.98,North,350,11.0,15.0,55,0.00,,,0.00,Wunderground v.1.15,2013-07-10 16:24:00,
2013-07-10 11:29:00,69.9,53.5,29.98,North,351,11.0,15.0,56,0.00,,,0.00,Wunderground v.1.15,2013-07-10 16:29:00,
2013-07-10 11:34:00,70.3,53.4,29.98,NNE,14,8.0,14.0,55,0.00,,,0.00,Wunderground v.1.15,2013-07-10 16:34:00,
2013-07-10 11:39:00,70.4,53.0,29.98,NNW,336,10.0,14.0,54,0.00,,,0.00,Wunderground v.1.15,2013-07-10 16:39:00,
2013-07-10 11:44:00,70.4,54.0,29.98,NNE,30,10.0,14.0,56,0.00,,,0.00,Wunderground v.1.15,2013-07-10 16:44:00,
2013-07-10 11:49:00,70.9,53.4,29.98,NNE,13,13.0,17.0,54,0.00,,,0.00,Wunderground v.1.15,2013-07-10 16:49:00,
2013-07-10 11:54:00,70.9,53.4,29.98,NNE,27,10.0,13.0,54,0.00,,,0.00,Wunderground v.1.15,2013-07-10 16:54:00,
2013-07-10 11:59:00,71.3,53.3,29.98,North,360,15.0,15.0,53,0.00,,,0.00,Wunderground v.1.15,2013-07-10 16:59:00,
2013-07-10 12:04:00,71.8,53.7,29.98,NNW,334,10.0,13.0,53,0.00,,,0.00,Wunderground v.1.15,2013-07-10 17:04:00,
2013-07-10 12:09:00,71.5,51.9,29.98,North,9,5.0,16.0,50,0.00,,,0.00,Wunderground v.1.15,2013-07-10 17:09:00,
2013-07-10 12:14:00,71.5,52.4,29.98,NNE,12,10.0,13.0,51,0.00,,,0.00,Wunderground v.1.15,2013-07-10 17:14:00,
2013-07-10 12:19:00,71.5,51.9,29.98,North,360,5.0,14.0,50,0.00,,,0.00,Wunderground v.1.15,2013-07-10 17:19:00,
2013-07-10 12:24:00,72.0,53.4,29.98,North,351,11.0,11.0,52,0.00,,,0.00,Wunderground v.1.15,2013-07-10 17:24:00,
2013-07-10 12:29:00,72.3,51.5,29.98,North,351,8.0,14.0,48,0.00,,,0.00,Wunderground v.1.15,2013-07-10 17:29:00,
2013-07-10 12:34:00,72.0,52.9,29.98,North,360,7.0,14.0,51,0.00,,,0.00,Wunderground v.1.15,2013-07-10 17:34:00,
2013-07-10 12:39:00,72.3,53.7,29.98,NNE,23,9.0,14.0,52,0.00,,,0.00,Wunderground v.1.15,2013-07-10 17:39:00,
2013-07-10 12:44:00,72.8,52.5,29.98,North,360,7.0,13.0,49,0.00,,,0.00,Wunderground v.1.15,2013-07-10 17:44:00,
2013-07-10 12:49:00,72.7,53.0,29.98,North,360,7.0,14.0,50,0.00,,,0.00,Wunderground v.1.15,2013-07-10 17:49:00,
2013-07-10 12:54:00,72.7,53.0,29.98,NNE,29,13.0,14.0,50,0.00,,,0.00,Wunderground v.1.15,2013-07-10 17:54:00,
2013-07-10 12:59:00,72.7,52.4,29.98,NNE,18,9.0,14.0,49,0.00,,,0.00,Wunderground v.1.15,2013-07-10 17:59:00,
2013-07-10 13:04:00,72.8,52.5,29.97,North,360,6.0,14.0,49,0.00,,,0.00,Wunderground v.1.15,2013-07-10 18:04:00,
2013-07-10 13:09:00,73.3,52.4,29.97,North,360,10.0,16.0,48,0.00,,,0.00,Wunderground v.1.15,2013-07-10 18:09:00,
2013-07-10 13:14:00,73.5,52.6,29.97,NNW,347,4.0,13.0,48,0.00,,,0.00,Wunderground v.1.15,2013-07-10 18:14:00,
2013-07-10 13:19:00,73.5,51.4,29.97,NNE,13,6.0,14.0,46,0.00,,,0.00,Wunderground v.1.15,2013-07-10 18:19:00,
2013-07-10 13:24:00,73.7,51.0,29.97,NE,41,10.0,13.0,45,0.00,,,0.00,Wunderground v.1.15,2013-07-10 18:24:00,
2013-07-10 13:29:00,73.9,50.6,29.97,NNE,32,9.0,15.0,44,0.00,,,0.00,Wunderground v.1.15,2013-07-10 18:29:00,
2013-07-10 13:34:00,73.9,51.8,29.97,NNW,344,5.0,11.0,46,0.00,,,0.00,Wunderground v.1.15,2013-07-10 18:34:00,
2013-07-10 13:39:00,74.6,51.9,29.97,North,9,0.0,11.0,45,0.00,,,0.00,Wunderground v.1.15,2013-07-10 18:39:00,
2013-07-10 13:44:00,74.4,51.7,29.97,NNW,340,7.0,11.0,45,0.00,,,0.00,Wunderground v.1.15,2013-07-10 18:44:00,
2013-07-10 13:49:00,74.0,51.9,29.97,NNE,27,13.0,15.0,46,0.00,,,0.00,Wunderground v.1.15,2013-07-10 18:49:00,
2013-07-10 13:54:00,74.4,51.7,29.97,North,350,3.0,13.0,45,0.00,,,0.00,Wunderground v.1.15,2013-07-10 18:54:00,
2013-07-10 13:59:00,74.4,51.1,29.97,NNW,343,9.0,13.0,44,0.00,,,0.00,Wunderground v.1.15,2013-07-10 18:59:00,
2013-07-10 14:04:00,74.6,51.9,29.97,North,360,9.0,13.0,45,0.00,,,0.00,Wunderground v.1.15,2013-07-10 19:04:00,
2013-07-10 14:09:00,74.7,51.9,29.97,NNE,19,7.0,13.0,45,0.00,,,0.00,Wunderground v.1.15,2013-07-10 19:09:00,
2013-07-10 14:14:00,74.9,52.7,29.97,NW,318,6.0,12.0,46,0.00,,,0.00,Wunderground v.1.15,2013-07-10 19:14:00,
2013-07-10 14:19:00,75.3,52.5,29.97,NE,43,4.0,12.0,45,0.00,,,0.00,Wunderground v.1.15,2013-07-10 19:19:00,
2013-07-10 14:24:00,74.7,52.5,29.97,NNE,14,2.0,7.0,46,0.00,,,0.00,Wunderground v.1.15,2013-07-10 19:24:00,
2013-07-10 14:29:00,75.3,51.9,29.97,North,360,7.0,10.0,44,0.00,,,0.00,Wunderground v.1.15,2013-07-10 19:29:00,
2013-07-10 14:34:00,75.3,51.9,29.98,NNE,18,4.0,12.0,44,0.00,,,0.00,Wunderground v.1.15,2013-07-10 19:34:00,
2013-07-10 14:39:00,75.8,53.5,29.98,ENE,57,0.0,12.0,46,0.00,,,0.00,Wunderground v.1.15,2013-07-10 19:39:00,
2013-07-10 14:44:00,76.1,52.0,29.98,NNE,22,6.0,11.0,43,0.00,,,0.00,Wunderground v.1.15,2013-07-10 19:44:00,
2013-07-10 14:49:00,75.6,52.8,29.97,North,351,0.0,11.0,45,0.00,,,0.00,Wunderground v.1.15,2013-07-10 19:49:00,
2013-07-10 14:54:00,75.6,52.1,29.97,NNW,340,3.0,9.0,44,0.00,,,0.00,Wunderground v.1.15,2013-07-10 19:54:00,
2013-07-10 14:59:00,75.8,52.9,29.97,NW,319,7.0,10.0,45,0.00,,,0.00,Wunderground v.1.15,2013-07-10 19:59:00,
2013-07-10 15:05:00,76.0,52.5,29.98,North,351,0.0,8.0,44,0.00,,,0.00,Wunderground v.1.15,2013-07-10 20:05:00,
2013-07-10 15:10:00,76.3,52.2,29.98,NNE,26,3.0,3.0,43,0.00,,,0.00,Wunderground v.1.15,2013-07-10 20:10:00,
2013-07-10 15:15:00,76.1,51.3,29.98,NNE,31,0.0,8.0,42,0.00,,,0.00,Wunderground v.1.15,2013-07-10 20:15:00,
2013-07-10 15:20:00,76.0,52.5,29.97,NNE,19,2.0,4.0,44,0.00,,,0.00,Wunderground v.1.15,2013-07-10 20:20:00,
2013-07-10 15:25:00,76.7,53.1,29.97,North,360,0.0,4.0,44,0.00,,,0.00,Wunderground v.1.15,2013-07-10 20:25:00,
2013-07-10 15:30:00,77.2,51.7,29.97,North,9,0.0,1.0,41,0.00,,,0.00,Wunderground v.1.15,2013-07-10 20:30:00,
2013-07-10 15:35:00,77.4,52.5,29.97,ENE,71,0.0,5.0,42,0.00,,,0.00,Wunderground v.1.15,2013-07-10 20:35:00,
2013-07-10 15:40:00,77.4,52.5,29.97,North,10,0.0,2.0,42,0.00,,,0.00,Wunderground v.1.15,2013-07-10 20:40:00,
2013-07-10 15:45:00,77.2,51.7,29.97,NNE,30,7.0,9.0,41,0.00,,,0.00,Wunderground v.1.15,2013-07-10 20:45:00,
2013-07-10 15:50:00,77.0,52.1,29.97,NNE,32,6.0,9.0,42,0.00,,,0.00,Wunderground v.1.15,2013-07-10 20:50:00,
2013-07-10 15:55:00,76.8,52.0,29.97,NNE,28,3.0,9.0,42,0.00,,,0.00,Wunderground v.1.15,2013-07-10 20:55:00,
2013-07-10 16:00:00,77.4,51.9,29.97,NNW,340,5.0,5.0,41,0.00,,,0.00,Wunderground v.1.15,2013-07-10 21:00:00,
2013-07-10 16:05:00,77.4,52.5,29.97,NNW,340,0.0,7.0,42,0.00,,,0.00,Wunderground v.1.15,2013-07-10 21:05:00,
2013-07-10 16:08:00,77.4,52.5,29.97,NNW,340,0.0,7.0,42,0.00,,,0.00,Wunderground v.1.15,2013-07-10 21:08:00,
2013-07-10 16:13:00,77.6,52.0,29.97,North,351,0.0,7.0,41,0.00,,,0.00,Wunderground v.1.15,2013-07-10 21:13:00,
2013-07-10 16:18:00,78.3,52.7,29.96,NNE,17,0.0,7.0,41,0.00,,,0.00,Wunderground v.1.15,2013-07-10 21:18:00,
2013-07-10 16:23:00,78.5,51.5,29.96,North,360,0.0,6.0,39,0.00,,,0.00,Wunderground v.1.15,2013-07-10 21:23:00,
2013-07-10 16:28:00,77.9,53.0,29.96,ENE,74,3.0,6.0,42,0.00,,,0.00,Wunderground v.1.15,2013-07-10 21:28:00,
2013-07-10 16:34:00,77.9,51.6,29.95,North,360,6.0,10.0,40,0.00,,,0.00,Wunderground v.1.15,2013-07-10 21:34:00,
2013-07-10 16:39:00,77.0,51.5,29.95,NNE,32,0.0,10.0,41,0.00,,,0.00,Wunderground v.1.15,2013-07-10 21:39:00,
2013-07-10 16:44:00,77.6,52.7,29.95,NE,36,4.0,5.0,42,0.00,,,0.00,Wunderground v.1.15,2013-07-10 21:44:00,
2013-07-10 16:49:00,77.7,52.8,29.95,NNE,21,0.0,10.0,42,0.00,,,0.00,Wunderground v.1.15,2013-07-10 21:49:00,
2013-07-10 16:54:00,77.9,53.0,29.95,NE,38,0.0,3.0,42,0.00,,,0.00,Wunderground v.1.15,2013-07-10 21:54:00,
2013-07-10 16:59:00,77.9,53.0,29.95,NNE,27,4.0,6.0,42,0.00,,,0.00,Wunderground v.1.15,2013-07-10 21:59:00,
2013-07-10 17:04:00,77.7,53.4,29.94,NE,49,0.0,6.0,43,0.00,,,0.00,Wunderground v.1.15,2013-07-10 22:04:00,
2013-07-10 17:09:00,78.1,53.1,29.94,East,86,1.0,6.0,42,0.00,,,0.00,Wunderground v.1.15,2013-07-10 22:09:00,
2013-07-10 17:14:00,77.9,52.3,29.94,ENE,63,0.0,5.0,41,0.00,,,0.00,Wunderground v.1.15,2013-07-10 22:14:00,
2013-07-10 17:19:00,77.9,51.6,29.94,NNE,26,0.0,7.0,40,0.00,,,0.00,Wunderground v.1.15,2013-07-10 22:19:00,
2013-07-10 17:24:00,77.9,50.9,29.94,North,360,0.0,2.0,39,0.00,,,0.00,Wunderground v.1.15,2013-07-10 22:24:00,
2013-07-10 17:29:00,78.6,50.9,29.94,NNW,344,1.0,7.0,38,0.00,,,0.00,Wunderground v.1.15,2013-07-10 22:29:00,
2013-07-10 17:34:00,78.3,50.6,29.94,NNE,12,5.0,7.0,38,0.00,,,0.00,Wunderground v.1.15,2013-07-10 22:34:00,
2013-07-10 17:39:00,77.9,50.9,29.94,NE,34,0.0,7.0,39,0.00,,,0.00,Wunderground v.1.15,2013-07-10 22:39:00,
2013-07-10 17:44:00,78.3,50.6,29.94,NW,325,3.0,7.0,38,0.00,,,0.00,Wunderground v.1.15,2013-07-10 22:44:00,
2013-07-10 17:49:00,78.1,50.4,29.94,NW,325,0.0,7.0,38,0.00,,,0.00,Wunderground v.1.15,2013-07-10 22:49:00,
2013-07-10 17:54:00,77.9,49.5,29.94,North,360,5.0,8.0,37,0.00,,,0.00,Wunderground v.1.15,2013-07-10 22:54:00,
2013-07-10 17:59:00,77.4,49.8,29.94,North,9,1.0,8.0,38,0.00,,,0.00,Wunderground v.1.15,2013-07-10 22:59:00,
2013-07-10 18:04:00,77.9,50.2,29.93,North,360,1.0,3.0,38,0.00,,,0.00,Wunderground v.1.15,2013-07-10 23:04:00,
2013-07-10 18:09:00,78.3,50.6,29.93,NNW,347,3.0,6.0,38,0.00,,,0.00,Wunderground v.1.15,2013-07-10 23:09:00,
2013-07-10 18:14:00,78.3,50.6,29.93,North,11,0.0,7.0,38,0.00,,,0.00,Wunderground v.1.15,2013-07-10 23:14:00,
2013-07-10 18:19:00,78.1,51.1,29.92,North,9,0.0,7.0,39,0.00,,,0.00,Wunderground v.1.15,2013-07-10 23:19:00,
2013-07-10 18:24:00,77.7,50.8,29.92,North,351,0.0,6.0,39,0.00,,,0.00,Wunderground v.1.15,2013-07-10 23:24:00,
2013-07-10 18:29:00,77.7,50.8,29.92,North,350,1.0,6.0,39,0.00,,,0.00,Wunderground v.1.15,2013-07-10 23:29:00,
2013-07-10 18:34:00,77.7,50.8,29.92,North,350,3.0,3.0,39,0.00,,,0.00,Wunderground v.1.15,2013-07-10 23:34:00,
2013-07-10 18:39:00,77.7,52.1,29.92,North,360,6.0,6.0,41,0.00,,,0.00,Wunderground v.1.15,2013-07-10 23:39:00,
2013-07-10 18:44:00,77.6,50.7,29.92,North,5,3.0,6.0,39,0.00,,,0.00,Wunderground v.1.15,2013-07-10 23:44:00,
2013-07-10 18:49:00,77.9,52.3,29.92,North,360,1.0,6.0,41,0.00,,,0.00,Wunderground v.1.15,2013-07-10 23:49:00,
2013-07-10 18:54:00,77.7,51.5,29.92,NNE,19,0.0,6.0,40,0.00,,,0.00,Wunderground v.1.15,2013-07-10 23:54:00,
2013-07-10 18:59:00,77.9,51.6,29.92,NNE,19,0.0,6.0,40,0.00,,,0.00,Wunderground v.1.15,2013-07-10 23:59:00,
2013-07-10 19:04:00,77.9,50.9,29.92,NNE,19,1.0,4.0,39,0.00,,,0.00,Wunderground v.1.15,2013-07-11 00:04:00,
2013-07-10 19:09:00,77.7,51.5,29.92,NNE,19,0.0,5.0,40,0.00,,,0.00,Wunderground v.1.15,2013-07-11 00:09:00,
2013-07-10 19:14:00,77.9,51.6,29.92,NNE,19,0.0,1.0,40,0.00,,,0.00,Wunderground v.1.15,2013-07-11 00:14:00,
2013-07-10 19:19:00,78.1,51.8,29.92,NNE,22,1.0,6.0,40,0.00,,,0.00,Wunderground v.1.15,2013-07-11 00:19:00,
2013-07-10 19:24:00,77.9,51.6,29.92,NNE,16,2.0,5.0,40,0.00,,,0.00,Wunderground v.1.15,2013-07-11 00:24:00,
2013-07-10 19:29:00,77.9,51.6,29.92,NNE,16,0.0,5.0,40,0.00,,,0.00,Wunderground v.1.15,2013-07-11 00:29:00,
2013-07-10 19:34:00,77.9,51.6,29.91,NNE,16,0.0,2.0,40,0.00,,,0.00,Wunderground v.1.15,2013-07-11 00:34:00,
2013-07-10 19:39:00,77.9,52.3,29.91,NNE,16,0.0,2.0,41,0.00,,,0.00,Wunderground v.1.15,2013-07-11 00:39:00,
2013-07-10 19:44:00,77.6,52.7,29.91,NNE,16,0.0,0.0,42,0.00,,,0.00,Wunderground v.1.15,2013-07-11 00:44:00,
2013-07-10 19:49:00,77.2,52.3,29.91,NNE,16,0.0,0.0,42,0.00,,,0.00,Wunderground v.1.15,2013-07-11 00:49:00,
2013-07-10 19:54:00,77.2,53.0,29.91,NNE,16,0.0,0.0,43,0.00,,,0.00,Wunderground v.1.15,2013-07-11 00:54:00,
2013-07-10 19:59:00,77.2,53.0,29.91,NNE,16,0.0,0.0,43,0.00,,,0.00,Wunderground v.1.15,2013-07-11 00:59:00,
2013-07-10 20:04:00,77.0,53.4,29.91,NNE,16,0.0,0.0,44,0.00,,,0.00,Wunderground v.1.15,2013-07-11 01:04:00,
2013-07-10 20:09:00,76.7,53.1,29.91,NNE,16,0.0,0.0,44,0.00,,,0.00,Wunderground v.1.15,2013-07-11 01:09:00,
2013-07-10 20:14:00,76.3,54.0,29.91,NNE,16,0.0,0.0,46,0.00,,,0.00,Wunderground v.1.15,2013-07-11 01:14:00,
2013-07-10 20:19:00,76.1,53.8,29.91,NNE,16,0.0,0.0,46,0.00,,,0.00,Wunderground v.1.15,2013-07-11 01:19:00,
2013-07-10 20:24:00,75.8,52.9,29.91,NNE,16,0.0,0.0,45,0.00,,,0.00,Wunderground v.1.15,2013-07-11 01:24:00,
2013-07-10 20:29:00,75.8,53.5,29.91,NNE,16,0.0,0.0,46,0.00,,,0.00,Wunderground v.1.15,2013-07-11 01:29:00,
2013-07-10 20:34:00,75.4,53.2,29.91,NNE,16,0.0,0.0,46,0.00,,,0.00,Wunderground v.1.15,2013-07-11 01:34:00,
2013-07-10 20:39:00,75.3,53.7,29.91,NNE,16,0.0,0.0,47,0.00,,,0.00,Wunderground v.1.15,2013-07-11 01:39:00,
2013-07-10 20:44:00,74.9,54.4,29.91,NNE,16,0.0,0.0,49,0.00,,,0.00,Wunderground v.1.15,2013-07-11 01:44:00,
2013-07-10 20:49:00,74.2,54.9,29.92,NNE,16,0.0,0.0,51,0.00,,,0.00,Wunderground v.1.15,2013-07-11 01:49:00,
2013-07-10 20:54:00,73.9,55.2,29.92,NNE,16,0.0,0.0,52,0.00,,,0.00,Wunderground v.1.15,2013-07-11 01:54:00,
2013-07-10 20:59:00,73.5,54.8,29.92,NNE,16,0.0,0.0,52,0.00,,,0.00,Wunderground v.1.15,2013-07-11 01:59:00,
2013-07-10 21:04:00,73.0,54.9,29.93,NNE,16,0.0,0.0,53,0.00,,,0.00,Wunderground v.1.15,2013-07-11 02:04:00,
2013-07-10 21:09:00,72.8,54.7,29.93,NNE,16,0.0,0.0,53,0.00,,,0.00,Wunderground v.1.15,2013-07-11 02:09:00,
2013-07-10 21:14:00,72.5,54.4,29.93,NNE,16,0.0,0.0,53,0.00,,,0.00,Wunderground v.1.15,2013-07-11 02:14:00,
2013-07-10 21:19:00,72.3,54.7,29.92,NNE,16,0.0,0.0,54,0.00,,,0.00,Wunderground v.1.15,2013-07-11 02:19:00,
2013-07-10 21:24:00,72.1,54.5,29.92,NNE,16,0.0,0.0,54,0.00,,,0.00,Wunderground v.1.15,2013-07-11 02:24:00,
2013-07-10 21:29:00,71.8,53.7,29.92,NNE,16,0.0,0.0,53,0.00,,,0.00,Wunderground v.1.15,2013-07-11 02:29:00,
2013-07-10 21:34:00,71.8,54.3,29.92,NNE,16,0.0,0.0,54,0.00,,,0.00,Wunderground v.1.15,2013-07-11 02:34:00,
2013-07-10 21:39:00,71.6,54.6,29.92,NNE,16,0.0,0.0,55,0.00,,,0.00,Wunderground v.1.15,2013-07-11 02:39:00,
2013-07-10 21:44:00,71.5,54.5,29.92,NNE,16,0.0,0.0,55,0.00,,,0.00,Wunderground v.1.15,2013-07-11 02:44:00,
2013-07-10 21:49:00,71.3,54.8,29.93,NNE,16,0.0,0.0,56,0.00,,,0.00,Wunderground v.1.15,2013-07-11 02:49:00,
2013-07-10 21:54:00,71.3,54.8,29.93,NNE,16,0.0,0.0,56,0.00,,,0.00,Wunderground v.1.15,2013-07-11 02:54:00,
2013-07-10 21:59:00,71.3,54.8,29.93,NNE,16,0.0,0.0,56,0.00,,,0.00,Wunderground v.1.15,2013-07-11 02:59:00,
2013-07-10 22:04:00,71.3,55.8,29.94,NNE,16,0.0,0.0,58,0.00,,,0.00,Wunderground v.1.15,2013-07-11 03:04:00,
2013-07-10 22:09:00,71.1,55.6,29.94,NNE,16,0.0,0.0,58,0.00,,,0.00,Wunderground v.1.15,2013-07-11 03:09:00,
2013-07-10 22:14:00,70.9,57.7,29.94,NNE,16,0.0,0.0,63,0.00,,,0.00,Wunderground v.1.15,2013-07-11 03:14:00,
2013-07-10 22:19:00,70.8,58.0,29.94,NNE,16,0.0,0.0,64,0.00,,,0.00,Wunderground v.1.15,2013-07-11 03:19:00,
2013-07-10 22:24:00,70.3,58.8,29.94,NNE,16,0.0,0.0,67,0.00,,,0.00,Wunderground v.1.15,2013-07-11 03:24:00,
2013-07-10 22:29:00,69.9,58.0,29.94,NNE,16,0.0,0.0,66,0.00,,,0.00,Wunderground v.1.15,2013-07-11 03:29:00,
2013-07-10 22:34:00,70.1,57.8,29.94,NNE,16,0.0,0.0,65,0.00,,,0.00,Wunderground v.1.15,2013-07-11 03:34:00,
2013-07-10 22:39:00,69.9,57.6,29.94,NNE,16,0.0,0.0,65,0.00,,,0.00,Wunderground v.1.15,2013-07-11 03:39:00,
2013-07-10 22:44:00,69.8,57.1,29.94,NNE,16,0.0,0.0,64,0.00,,,0.00,Wunderground v.1.15,2013-07-11 03:44:00,
2013-07-10 22:50:00,69.6,56.9,29.95,NNE,16,0.0,0.0,64,0.00,,,0.00,Wunderground v.1.15,2013-07-11 03:50:00,
2013-07-10 22:55:00,69.6,56.9,29.95,NNE,16,0.0,0.0,64,0.00,,,0.00,Wunderground v.1.15,2013-07-11 03:55:00,
2013-07-10 23:00:00,69.4,56.7,29.95,NNE,16,0.0,0.0,64,0.00,,,0.00,Wunderground v.1.15,2013-07-11 04:00:00,
2013-07-10 23:01:00,69.4,56.3,29.96,NNE,16,0.0,0.0,63,0.00,,,0.00,Wunderground v.1.15,2013-07-11 04:01:00,
2013-07-10 23:05:00,69.4,55.8,29.96,NNE,16,0.0,0.0,62,0.00,,,0.00,Wunderground v.1.15,2013-07-11 04:05:00,
2013-07-10 23:10:00,69.4,56.3,29.96,NNE,16,0.0,0.0,63,0.00,,,0.00,Wunderground v.1.15,2013-07-11 04:10:00,
2013-07-10 23:14:00,69.3,56.2,29.96,NNE,16,0.0,0.0,63,0.00,,,0.00,Wunderground v.1.15,2013-07-11 04:14:00,
2013-07-10 23:17:00,69.3,56.2,29.96,NNE,16,0.0,0.0,63,0.00,,,0.00,Wunderground v.1.15,2013-07-11 04:17:00,
2013-07-10 23:22:00,69.1,56.0,29.96,NNE,16,0.0,0.0,63,0.00,,,0.00,Wunderground v.1.15,2013-07-11 04:22:00,
2013-07-10 23:27:00,68.9,55.8,29.96,NNE,16,0.0,0.0,63,0.00,,,0.00,Wunderground v.1.15,2013-07-11 04:27:00,
2013-07-10 23:28:00,68.9,55.8,29.96,NNE,16,0.0,0.0,63,0.00,,,0.00,Wunderground v.1.15,2013-07-11 04:28:00,
2013-07-10 23:33:00,69.1,56.4,29.96,NNE,16,0.0,0.0,64,0.00,,,0.00,Wunderground v.1.15,2013-07-11 04:33:00,
2013-07-10 23:38:00,69.3,56.6,29.96,NNE,16,0.0,0.0,64,0.00,,,0.00,Wunderground v.1.15,2013-07-11 04:38:00,
2013-07-10 23:43:00,69.1,56.4,29.96,NNE,16,0.0,0.0,64,0.00,,,0.00,Wunderground v.1.15,2013-07-11 04:43:00,
2013-07-10 23:48:00,68.9,56.6,29.97,NNE,16,0.0,0.0,65,0.00,,,0.00,Wunderground v.1.15,2013-07-11 04:48:00,
2013-07-10 23:53:00,68.6,56.4,29.97,NNE,16,0.0,0.0,65,0.00,,,0.00,Wunderground v.1.15,2013-07-11 04:53:00,
2013-07-10 23:58:00,68.4,56.2,29.97,NNE,16,0.0,0.0,65,0.00,,,0.00,Wunderground v.1.15,2013-07-11 04:58:00,